Time,TemperatureF,DewpointF,PressureIn,WindDirection,WindDirectionDegrees,WindSpeedMPH,WindSpeedGustMPH,Humidity,HourlyPrecipIn,Conditions,Clouds,dailyrainin,SoftwareType,DateUTC
2013-03-01 00:02:00,26.1,20.8,30.20,West,270,3.7,-999.0,80,-99.99,,,0.00,Acu-Link.com,2013-03-01 06:02:00,
2013-03-01 00:17:00,25.9,20.3,30.20,ESE,112,2.2,-999.0,79,-99.99,,,0.00,Acu-Link.com,2013-03-01 06:17:00,
2013-03-01 00:32:00,25.9,20.3,30.19,North,0,5.8,-999.0,79,-99.99,,,0.00,Acu-Link.com,2013-03-01 06:32:00,
2013-03-01 00:47:00,25.7,19.5,30.19,SW,225,4.7,-999.0,77,-99.99,,,0.00,Acu-Link.com,2013-03-01 06:47:00,
2013-03-01 01:02:00,25.3,19.1,30.20,East,90,2.7,-999.0,77,-99.99,,,0.00,Acu-Link.com,2013-03-01 07:02:00,
2013-03-01 01:18:00,25.2,19.0,30.20,NNE,22,2.7,-999.0,77,-99.99,,,0.00,Acu-Link.com,2013-03-01 07:18:00,
2013-03-01 01:33:00,25.0,18.8,30.21,South,180,3.7,-999.0,77,-99.99,,,0.00,Acu-Link.com,2013-03-01 07:33:00,
2013-03-01 01:48:00,24.8,18.6,30.20,NNE,22,3.7,-999.0,77,-99.99,,,0.00,Acu-Link.com,2013-03-01 07:48:00,
2013-03-01 02:03:00,24.8,18.6,30.21,SW,225,6.8,-999.0,77,-99.99,,,0.00,Acu-Link.com,2013-03-01 08:03:00,
2013-03-01 02:18:00,24.8,18.6,30.20,SW,225,4.2,-999.0,77,-99.99,,,0.00,Acu-Link.com,2013-03-01 08:18:00,
2013-03-01 02:34:00,24.8,18.6,30.20,West,270,3.2,-999.0,77,-99.99,,,0.00,Acu-Link.com,2013-03-01 08:34:00,
2013-03-01 02:49:00,24.8,18.6,30.21,North,0,3.7,-999.0,77,-99.99,,,0.00,Acu-Link.com,2013-03-01 08:49:00,
2013-03-01 03:19:00,24.8,18.6,30.19,WSW,247,2.2,-999.0,77,-99.99,,,0.00,Acu-Link.com,2013-03-01 09:19:00,
2013-03-01 03:34:00,24.6,18.4,30.19,South,180,2.7,-999.0,77,-99.99,,,0.00,Acu-Link.com,2013-03-01 09:34:00,
2013-03-01 03:49:00,24.6,18.4,30.18,WSW,247,1.1,-999.0,77,-99.99,,,0.00,Acu-Link.com,2013-03-01 09:49:00,
2013-03-01 04:05:00,24.6,18.7,30.19,SE,135,2.2,-999.0,78,-99.99,,,0.00,Acu-Link.com,2013-03-01 10:05:00,
2013-03-01 04:20:00,24.6,18.7,30.19,SW,225,1.7,-999.0,78,-99.99,,,0.00,Acu-Link.com,2013-03-01 10:20:00,
2013-03-01 04:35:00,24.8,19.2,30.20,West,270,5.3,-999.0,79,-99.99,,,0.00,Acu-Link.com,2013-03-01 10:35:00,
2013-03-01 04:50:00,24.8,18.9,30.21,SE,135,2.2,-999.0,78,-99.99,,,0.00,Acu-Link.com,2013-03-01 10:50:00,
2013-03-01 05:05:00,24.6,18.7,30.21,SE,135,3.7,-999.0,78,-99.99,,,0.00,Acu-Link.com,2013-03-01 11:05:00,
2013-03-01 05:21:00,24.6,18.4,30.21,WSW,247,3.2,-999.0,77,-99.99,,,0.00,Acu-Link.com,2013-03-01 11:21:00,
2013-03-01 05:36:00,24.3,17.5,30.20,NNW,337,1.7,-999.0,75,-99.99,,,0.00,Acu-Link.com,2013-03-01 11:36:00,
2013-03-01 05:51:00,24.1,17.3,30.21,West,270,3.7,-999.0,75,-99.99,,,0.00,Acu-Link.com,2013-03-01 11:51:00,
2013-03-01 06:07:00,23.9,17.2,30.22,SW,225,2.7,-999.0,75,-99.99,,,0.00,Acu-Link.com,2013-03-01 12:07:00,
2013-03-01 06:22:00,23.7,17.0,30.21,WSW,247,5.8,-999.0,75,-99.99,,,0.00,Acu-Link.com,2013-03-01 12:22:00,
2013-03-01 06:37:00,23.7,17.0,30.22,SW,225,7.3,-999.0,75,-99.99,,,0.00,Acu-Link.com,2013-03-01 12:37:00,
2013-03-01 06:52:00,23.5,16.8,30.21,SSW,202,3.2,-999.0,75,-99.99,,,0.00,Acu-Link.com,2013-03-01 12:52:00,
2013-03-01 07:07:00,23.5,17.1,30.22,NNE,22,3.7,-999.0,76,-99.99,,,0.00,Acu-Link.com,2013-03-01 13:07:00,
2013-03-01 07:23:00,23.5,17.1,30.23,WSW,247,6.8,-999.0,76,-99.99,,,0.00,Acu-Link.com,2013-03-01 13:23:00,
2013-03-01 07:38:00,23.7,17.6,30.23,East,90,6.8,-999.0,77,-99.99,,,0.00,Acu-Link.com,2013-03-01 13:38:00,
2013-03-01 07:53:00,23.7,17.6,30.25,WSW,247,2.7,-999.0,77,-99.99,,,0.00,Acu-Link.com,2013-03-01 13:53:00,
2013-03-01 08:08:00,23.7,17.6,30.24,WNW,292,6.8,-999.0,77,-99.99,,,0.00,Acu-Link.com,2013-03-01 14:08:00,
2013-03-01 08:24:00,24.3,18.1,30.24,North,0,3.2,-999.0,77,-99.99,,,0.00,Acu-Link.com,2013-03-01 14:24:00,
2013-03-01 08:39:00,25.0,18.5,30.25,WNW,292,3.7,-999.0,76,-99.99,,,0.00,Acu-Link.com,2013-03-01 14:39:00,
2013-03-01 08:54:00,25.7,18.9,30.24,West,270,5.8,-999.0,75,-99.99,,,0.00,Acu-Link.com,2013-03-01 14:54:00,
2013-03-01 09:09:00,25.7,18.9,30.24,NNW,337,8.9,-999.0,75,-99.99,,,0.00,Acu-Link.com,2013-03-01 15:09:00,
2013-03-01 09:24:00,25.5,18.7,30.25,WSW,247,1.7,-999.0,75,-99.99,,,0.00,Acu-Link.com,2013-03-01 15:24:00,
2013-03-01 09:40:00,25.7,18.9,30.26,WNW,292,3.7,-999.0,75,-99.99,,,0.00,Acu-Link.com,2013-03-01 15:40:00,
2013-03-01 09:55:00,26.1,19.3,30.26,NW,315,3.7,-999.0,75,-99.99,,,0.00,Acu-Link.com,2013-03-01 15:55:00,
2013-03-01 10:10:00,27.0,19.8,30.26,East,90,6.3,-999.0,74,-99.99,,,0.00,Acu-Link.com,2013-03-01 16:10:00,
2013-03-01 10:25:00,27.9,20.1,30.27,ESE,112,3.2,-999.0,72,-99.99,,,0.00,Acu-Link.com,2013-03-01 16:25:00,
2013-03-01 10:40:00,27.5,20.0,30.26,West,270,3.7,-999.0,73,-99.99,,,0.00,Acu-Link.com,2013-03-01 16:40:00,
2013-03-01 10:56:00,28.0,20.2,30.26,NE,45,3.2,-999.0,72,-99.99,,,0.00,Acu-Link.com,2013-03-01 16:56:00,
2013-03-01 11:11:00,28.8,20.3,30.26,NNW,337,4.7,-999.0,70,-99.99,,,0.00,Acu-Link.com,2013-03-01 17:11:00,
2013-03-01 11:26:00,28.8,20.3,30.26,ESE,112,5.8,-999.0,70,-99.99,,,0.00,Acu-Link.com,2013-03-01 17:26:00,
2013-03-01 11:41:00,29.3,20.8,30.26,SE,135,2.2,-999.0,70,-99.99,,,0.00,Acu-Link.com,2013-03-01 17:41:00,
2013-03-01 11:56:00,30.4,20.8,30.26,NNE,22,2.2,-999.0,67,-99.99,,,0.00,Acu-Link.com,2013-03-01 17:56:00,
2013-03-01 12:12:00,29.8,19.1,30.27,East,90,3.2,-999.0,64,-99.99,,,0.00,Acu-Link.com,2013-03-01 18:12:00,
2013-03-01 12:27:00,31.1,20.0,30.25,NNE,22,2.7,-999.0,63,-99.99,,,0.00,Acu-Link.com,2013-03-01 18:27:00,
2013-03-01 12:42:00,30.6,18.8,30.25,ESE,112,3.2,-999.0,61,-99.99,,,0.00,Acu-Link.com,2013-03-01 18:42:00,
2013-03-01 12:57:00,31.3,19.0,30.26,NNW,337,5.3,-999.0,60,-99.99,,,0.00,Acu-Link.com,2013-03-01 18:57:00,
2013-03-01 13:13:00,31.1,19.6,30.26,SSE,157,4.2,-999.0,62,-99.99,,,0.00,Acu-Link.com,2013-03-01 19:13:00,
2013-03-01 13:28:00,31.6,19.7,30.26,SSE,157,4.7,-999.0,61,-99.99,,,0.00,Acu-Link.com,2013-03-01 19:28:00,
2013-03-01 13:43:00,32.0,20.1,30.25,East,90,7.8,-999.0,61,-99.99,,,0.00,Acu-Link.com,2013-03-01 19:43:00,
2013-03-01 13:58:00,31.6,20.1,30.24,ESE,112,4.7,-999.0,62,-99.99,,,0.00,Acu-Link.com,2013-03-01 19:58:00,
2013-03-01 14:14:00,32.7,20.8,30.25,West,270,2.2,-999.0,61,-99.99,,,0.00,Acu-Link.com,2013-03-01 20:14:00,
2013-03-01 14:29:00,33.3,20.9,30.25,SSE,157,4.7,-999.0,60,-99.99,,,0.00,Acu-Link.com,2013-03-01 20:29:00,
2013-03-01 14:44:00,32.7,20.8,30.24,NNW,337,3.7,-999.0,61,-99.99,,,0.00,Acu-Link.com,2013-03-01 20:44:00,
2013-03-01 14:59:00,32.5,20.2,30.25,West,270,6.8,-999.0,60,-99.99,,,0.00,Acu-Link.com,2013-03-01 20:59:00,
2013-03-01 15:15:00,32.4,20.5,30.25,South,180,5.3,-999.0,61,-99.99,,,0.00,Acu-Link.com,2013-03-01 21:15:00,
2013-03-01 15:30:00,32.4,20.1,30.24,West,270,3.2,-999.0,60,-99.99,,,0.00,Acu-Link.com,2013-03-01 21:30:00,
2013-03-01 15:45:00,31.8,19.9,30.25,NE,45,4.7,-999.0,61,-99.99,,,0.00,Acu-Link.com,2013-03-01 21:45:00,
2013-03-01 16:00:00,31.8,20.3,30.25,NNW,337,4.7,-999.0,62,-99.99,,,0.00,Acu-Link.com,2013-03-01 22:00:00,
2013-03-01 16:15:00,31.6,20.1,30.24,West,270,3.7,-999.0,62,-99.99,,,0.00,Acu-Link.com,2013-03-01 22:15:00,
2013-03-01 16:31:00,32.0,20.5,30.24,North,0,3.2,-999.0,62,-99.99,,,0.00,Acu-Link.com,2013-03-01 22:31:00,
2013-03-01 16:46:00,31.1,20.4,30.26,NNW,337,5.8,-999.0,64,-99.99,,,0.00,Acu-Link.com,2013-03-01 22:46:00,
2013-03-01 17:01:00,30.2,19.5,30.27,West,270,3.7,-999.0,64,-99.99,,,0.00,Acu-Link.com,2013-03-01 23:01:00,
2013-03-01 17:17:00,29.8,19.5,30.28,NNW,337,5.8,-999.0,65,-99.99,,,0.00,Acu-Link.com,2013-03-01 23:17:00,
2013-03-01 18:04:00,29.3,19.4,30.29,ENE,67,8.3,-999.0,66,-99.99,,,0.00,Acu-Link.com,2013-03-02 00:04:00,
2013-03-01 18:31:00,27.3,18.2,30.30,NE,45,7.3,-999.0,68,-99.99,,,0.00,Acu-Link.com,2013-03-02 00:31:00,
2013-03-01 19:01:00,26.6,17.8,30.30,ENE,67,3.2,-999.0,69,-99.99,,,0.00,Acu-Link.com,2013-03-02 01:01:00,
2013-03-01 19:17:00,26.2,17.8,30.30,East,90,3.2,-999.0,70,-99.99,,,0.00,Acu-Link.com,2013-03-02 01:17:00,
2013-03-01 19:32:00,25.9,17.8,30.31,SE,135,2.7,-999.0,71,-99.99,,,0.00,Acu-Link.com,2013-03-02 01:32:00,
2013-03-01 19:47:00,25.7,17.9,30.31,ESE,112,2.2,-999.0,72,-99.99,,,0.00,Acu-Link.com,2013-03-02 01:47:00,
2013-03-01 20:02:00,25.5,17.8,30.31,ENE,67,4.7,-999.0,72,-99.99,,,0.00,Acu-Link.com,2013-03-02 02:02:00,
2013-03-01 20:18:00,25.2,17.5,30.31,WNW,292,1.7,-999.0,72,-99.99,,,0.00,Acu-Link.com,2013-03-02 02:18:00,
2013-03-01 20:33:00,24.8,17.4,30.31,NE,45,3.2,-999.0,73,-99.99,,,0.00,Acu-Link.com,2013-03-02 02:33:00,
2013-03-01 20:48:00,24.4,17.3,30.31,ESE,112,2.2,-999.0,74,-99.99,,,0.00,Acu-Link.com,2013-03-02 02:48:00,
2013-03-01 21:03:00,23.7,17.0,30.32,West,270,1.1,-999.0,75,-99.99,,,0.00,Acu-Link.com,2013-03-02 03:03:00,
2013-03-01 21:20:00,22.6,16.5,30.31,SW,225,0.0,-999.0,77,-99.99,,,0.00,Acu-Link.com,2013-03-02 03:20:00,
2013-03-01 21:36:00,22.1,16.0,30.31,NNE,22,1.7,-999.0,77,-99.99,,,0.00,Acu-Link.com,2013-03-02 03:36:00,
2013-03-01 21:51:00,22.5,16.4,30.32,NE,45,1.1,-999.0,77,-99.99,,,0.00,Acu-Link.com,2013-03-02 03:51:00,
2013-03-01 22:06:00,22.8,16.7,30.33,NW,315,2.7,-999.0,77,-99.99,,,0.00,Acu-Link.com,2013-03-02 04:06:00,
2013-03-01 22:22:00,22.3,16.2,30.32,WNW,292,1.1,-999.0,77,-99.99,,,0.00,Acu-Link.com,2013-03-02 04:22:00,
2013-03-01 22:37:00,21.7,15.9,30.32,North,0,2.7,-999.0,78,-99.99,,,0.00,Acu-Link.com,2013-03-02 04:37:00,
2013-03-01 22:52:00,20.5,15.0,30.32,NNE,22,0.0,-999.0,79,-99.99,,,0.00,Acu-Link.com,2013-03-02 04:52:00,
2013-03-01 23:08:00,19.2,14.1,30.32,NE,45,0.0,-999.0,80,-99.99,,,0.00,Acu-Link.com,2013-03-02 05:08:00,
2013-03-01 23:23:00,18.7,14.1,30.32,South,180,0.0,-999.0,82,-99.99,,,0.00,Acu-Link.com,2013-03-02 05:23:00,
2013-03-01 23:38:00,17.6,13.1,30.32,NE,45,0.0,-999.0,82,-99.99,,,0.00,Acu-Link.com,2013-03-02 05:38:00,
2013-03-01 23:53:00,16.5,12.0,30.32,NNE,22,0.0,-999.0,82,-99.99,,,0.00,Acu-Link.com,2013-03-02 05:53:00,